createdAt,value
2022-12-17T00:08:13.566Z,8.20
2022-12-17T00:22:13.575Z,8.45
2022-12-17T00:36:13.577Z,8.40
2022-12-17T00:50:13.578Z,8.95
2022-12-17T01:04:13.578Z,8.50
2022-12-17T01:18:13.581Z,8.95
2022-12-17T01:32:13.647Z,8.70
2022-12-17T01:46:13.663Z,8.30
2022-12-17T02:00:13.624Z,9.00
2022-12-17T02:14:13.621Z,9.10
2022-12-17T02:28:13.625Z,8.90
2022-12-17T02:42:13.625Z,8.90
2022-12-17T02:56:13.637Z,8.50
2022-12-17T03:10:13.628Z,8.40
2022-12-17T03:24:13.714Z,8.20
2022-12-17T03:38:13.723Z,8.40
2022-12-17T03:52:13.674Z,8.10
2022-12-17T04:06:13.680Z,8.20
2022-12-17T04:20:13.673Z,7.50
2022-12-17T04:34:13.685Z,7.60
2022-12-17T04:48:13.676Z,7.50
2022-12-17T05:02:13.763Z,7.00
2022-12-17T05:16:13.706Z,7.10
2022-12-17T05:30:13.689Z,6.50
2022-12-17T05:44:13.694Z,6.70
2022-12-17T05:58:13.703Z,6.30
2022-12-17T06:12:13.726Z,6.60
2022-12-17T06:26:13.711Z,6.40
2022-12-17T06:41:13.717Z,5.80
2022-12-17T06:56:13.752Z,5.90
2022-12-17T07:11:13.747Z,8.20
2022-12-17T07:26:13.767Z,9.10
2022-12-17T07:41:13.761Z,8.50
2022-12-17T07:56:13.744Z,8.60
2022-12-17T08:11:13.798Z,8.00
2022-12-17T08:26:13.863Z,7.90
2022-12-17T08:41:13.852Z,7.40
2022-12-17T08:56:13.849Z,7.30
2022-12-17T09:11:13.852Z,6.40
2022-12-17T09:26:13.859Z,6.20
2022-12-17T09:41:13.913Z,6.30
2022-12-17T09:56:13.971Z,5.50
2022-12-17T10:11:13.922Z,5.20
2022-12-17T10:26:13.905Z,4.70
2022-12-17T10:41:13.920Z,4.30
2022-12-17T10:56:13.927Z,4.45
2022-12-17T11:11:13.957Z,4.10
2022-12-17T11:26:13.941Z,3.90
2022-12-17T11:41:13.934Z,4.10
2022-12-17T11:56:13.941Z,4.30
2022-12-17T12:12:13.965Z,3.80
2022-12-17T12:28:13.971Z,3.20
2022-12-17T12:43:13.981Z,3.60
2022-12-17T12:58:14.008Z,3.00
2022-12-17T13:13:14.005Z,3.00
2022-12-17T13:28:14.030Z,2.80
2022-12-17T13:43:14.014Z,2.80
2022-12-17T13:58:14.037Z,2.80
2022-12-17T14:13:14.067Z,3.00
2022-12-17T14:28:14.106Z,3.15
2022-12-17T14:43:14.098Z,3.00
2022-12-17T14:59:14.092Z,3.00
2022-12-17T15:14:14.084Z,3.50
2022-12-17T15:29:14.110Z,3.30
2022-12-17T15:44:14.101Z,2.60
2022-12-17T15:59:14.122Z,2.80
2022-12-17T16:13:14.110Z,3.00
2022-12-17T16:27:14.122Z,2.60
2022-12-17T16:41:14.128Z,2.70
2022-12-17T16:55:14.149Z,2.90
2022-12-17T17:09:14.143Z,2.90
2022-12-17T17:23:14.159Z,3.00
2022-12-17T17:37:14.205Z,3.60
2022-12-17T17:51:14.203Z,3.30
2022-12-17T18:05:14.198Z,3.70
2022-12-17T18:19:14.194Z,3.50
2022-12-17T18:33:14.200Z,3.40
2022-12-17T18:47:14.309Z,3.40
2022-12-17T19:01:14.331Z,3.10
2022-12-17T19:15:14.286Z,3.30
2022-12-17T19:29:14.298Z,2.90
2022-12-17T19:43:14.295Z,3.60
2022-12-17T19:57:14.311Z,4.30
2022-12-17T20:11:14.318Z,5.10
2022-12-17T20:25:14.292Z,5.10
2022-12-17T20:36:14.315Z,4.85
2022-12-17T20:50:14.300Z,5.00
2022-12-17T21:04:14.329Z,4.70
2022-12-17T21:18:14.328Z,4.60
2022-12-17T21:32:14.386Z,4.15
2022-12-17T21:46:14.437Z,4.35
2022-12-17T22:00:14.387Z,4.05
2022-12-17T22:14:20.537Z,3.65
2022-12-17T22:28:14.392Z,3.60
2022-12-17T22:44:40.428Z,3.40
2022-12-17T22:56:19.274Z,3.00
2022-12-17T23:10:14.434Z,3.00
2022-12-17T23:24:14.445Z,3.00
2022-12-17T23:38:14.484Z,2.70
2022-12-17T23:52:14.459Z,2.50
